Airfield :
LOGIN :

Register | Disclaimer

   EN    FR    IT 

 










Legend :    VFR   Marginal VFR   IFR   Intensive IFR   Very Intensive IFR
Visi :
Ceiling :
>= 8 km
>= 3000ft
5 to 8 km
1000 to 3000 ft
1500m to 5 km
500 to 1000 ft
800 to 1500m
200 to 500 ft
< 800m
< 200 ft
Symbols :   Thunderstorms  Fog  Heavy snow  Heavy precipitations  Wind > 20 kt
SIGMETs :     Misc.  Thunderstorms  Icing  Turbulence  Mountain Waves  Volcanic Ashes






- Airport Elevation : 401 ft
- IATA code : LEQ


EGHC - Land's End

CURRENT METAR :
  • 091020Z 32021KT 9999 FEW014 09/05 Q1021

EXPIRED METARs :
  • 090950Z 32026KT 9999 FEW008 SCT016 09/05 Q1020
  • 090920Z 32025KT 9999 FEW008 SCT018 09/05 Q1019
  • 090850Z 32027KT 9999 FEW008 SCT017 09/05 Q1018
  • 090820Z 32027G40KT 9999 FEW008 SCT016 09/05 Q1017
  • 090750Z 32028G38KT 9999 FEW008 SCT017 10/06 Q1017

TAF TAF EGHC
Valid from the 09 at 09:00 until the 09 at 18:00 UTC


090805Z 0909/0918 32025G40KT 9999 FEW030
BECMG 0912/0915 32016KT
BECMG 0915/0918 26006KT



MET'MAP, your aeronautical weather chart ! - Copyright ORBIFLY December 2007 - Disclaimer

ORBIFLY MET'MAP TEAM :

Programming & Development : Alexandra Zaïnal
Concept & original design : Baudouin d'Aumeries
Assistance for programming : Marc-Olivier Méhu
Technical & hardware support : Manuel Goepfert

Contact : metmap@orbifly.com




SOURCES & CREDITS :

   NOAA